Wilson Heron — 9HJW9 — position and weather

sailwx.info

Track history (hours):
 
Tides and Currents Weather Stations Pressure Air Temp Water Temp Dewpoint Dewpoint Depression Visibility Wind Speed Wind Dir Waves Ship Positions

Wilson Heron

Last reported at 2017-Feb-21 09:21 UTC. Time now 2017-Feb-21 17:31 UTC.
Position N 39°41' W 009°50'.

Length 91 m; draft 6 m.

Type: Cargo ship. MMSI: 249075000.

Date/timePositionNaut miles runAvg speedWind from/ knotsBaromVisibWave heightAir tempDewpointWater temp
2017-Feb-21 09:21N 39°41' W 009°50'7 9.4
2017-Feb-21 08:33N 39°34' W 009°51'9 9.3
2017-Feb-21 07:33N 39°25' W 009°51'10 9.6
2017-Feb-21 06:33N 39°15' W 009°50'9 9.3
2017-Feb-21 05:33N 39°06' W 009°51'9 8.9
2017-Feb-21 04:33N 38°57' W 009°51'9 9.0
2017-Feb-21 03:33N 38°48' W 009°51'9 8.8
2017-Feb-21 02:33N 38°39' W 009°50'9 9.4
2017-Feb-21 01:33N 38°30' W 009°46'9 9.1
2017-Feb-21 00:33N 38°21' W 009°43'9 9.3
2017-Feb-20 23:33N 38°15' W 009°34'9 9.5
2017-Feb-20 22:33N 38°10' W 009°24'10 9.7
2017-Feb-20 21:33N 38°04' W 009°14'10 9.7
2017-Feb-20 20:33N 37°59' W 009°03'10 9.9
2017-Feb-20 19:33N 37°54' W 008°52'2 2.1
2017-Feb-20 18:32N 37°56' W 008°51'0 0.0
2017-Feb-20 17:32N 37°56' W 008°51'0 0.0
2017-Feb-20 16:32N 37°56' W 008°51'0 0.0
2017-Feb-20 15:32N 37°56' W 008°51'0 0.0
2017-Feb-20 14:32N 37°56' W 008°51'0 0.0
2017-Feb-20 13:29N 37°56' W 008°51'0 0.0
2017-Feb-20 12:32N 37°56' W 008°51'0 0.0
2017-Feb-20 11:32N 37°56' W 008°51'0 0.0
2017-Feb-20 10:32N 37°56' W 008°51'0 0.0
2017-Feb-20 09:32N 37°56' W 008°51'0 0.0
2017-Feb-20 08:32N 37°56' W 008°51'0 0.0
2017-Feb-20 07:32N 37°56' W 008°51'0 0.0
2017-Feb-20 06:32N 37°56' W 008°51'0 0.0
2017-Feb-20 05:32N 37°56' W 008°51'0 0.0
2017-Feb-20 04:29N 37°56' W 008°51'0 0.0
2017-Feb-20 03:32N 37°56' W 008°51'0 0.0
2017-Feb-20 02:32N 37°56' W 008°51'0 0.0
2017-Feb-20 01:32N 37°56' W 008°51'0 0.0
2017-Feb-20 00:32N 37°56' W 008°51'0 0.0
2017-Feb-19 23:32N 37°56' W 008°51'0 0.0
2017-Feb-19 22:32N 37°56' W 008°51'0 0.0
2017-Feb-19 21:32N 37°56' W 008°51'0 0.0
2017-Feb-19 20:32N 37°56' W 008°51'0 0.0
2017-Feb-19 19:32N 37°56' W 008°51'0 0.0
2017-Feb-19 18:32N 37°56' W 008°51'1 0.9
2017-Feb-19 17:33N 37°56' W 008°52'1 0.5
2017-Feb-19 16:32N 37°56' W 008°52'0 0.0
2017-Feb-19 15:32N 37°56' W 008°52'0 0.0
2017-Feb-19 14:29N 37°56' W 008°52'0 0.0
2017-Feb-19 13:32N 37°56' W 008°52'0 0.0
2017-Feb-19 12:32N 37°56' W 008°52'1 1.4
2017-Feb-19 11:33N 37°55' W 008°53'4 3.6
2017-Feb-19 10:33N 37°55' W 008°57'3 3.2
2017-Feb-19 09:33N 37°56' W 009°01'1 1.4
2017-Feb-19 08:33N 37°58' W 009°02'2 2.2
2017-Feb-19 07:33N 37°59' W 009°03'6 6.4
2017-Feb-19 06:33N 38°03' W 009°10'1010.1
2017-Feb-19 05:33N 38°09' W 009°20'1110.5
2017-Feb-19 04:33N 38°15' W 009°31'1110.5
2017-Feb-19 03:33N 38°21' W 009°42'1010.5
2017-Feb-19 02:33N 38°28' W 009°53'1010.4
2017-Feb-19 01:33N 38°34' W 010°03'1110.3
2017-Feb-19 00:31N 38°45' W 010°06'1010.6
2017-Feb-18 23:33N 38°55' W 010°06'1110.7
2017-Feb-18 22:32N 39°06' W 010°06'339 8.0
2017-Feb-17 04:16N 43°46' W 005°51'810.7
2017-Feb-17 03:33N 43°45' W 005°40'1110.6
2017-Feb-17 02:33N 43°44' W 005°26'1110.7
2017-Feb-17 01:33N 43°43' W 005°11'14010.8
2017-Feb-16 12:33N 43°22' W 001°59'2 0.1
2017-Feb-15 12:33N 43°22' W 001°56'38 7.2
2017-Feb-15 07:21N 43°55' W 002°21'810.5
2017-Feb-15 06:33N 44°02' W 002°27'1010.3
2017-Feb-15 05:33N 44°12' W 002°33'10 9.9
2017-Feb-15 04:33N 44°20' W 002°40'326 7.4
2017-Feb-13 08:29N 49°45' W 003°34'7 7.6
2017-Feb-13 07:33N 49°48' W 003°24'8 7.7
2017-Feb-13 06:33N 49°51' W 003°14'8 8.3
2017-Feb-13 05:33N 49°56' W 003°03'9 9.0
2017-Feb-13 04:33N 49°59' W 002°50'96 8.7
2017-Feb-12 17:33N 50°26' W 000°26'1111.0
2017-Feb-12 16:31N 50°29' W 000°09'1111.1
2017-Feb-12 15:33N 50°32' E 000°07'1110.9
2017-Feb-12 14:33N 50°35' E 000°24'1010.1
2017-Feb-12 13:33N 50°39' E 000°38'10 9.6
2017-Feb-12 12:33N 50°45' E 000°50'12 8.9
2017-Feb-12 11:09N 50°52' E 001°05'6 9.1
2017-Feb-12 10:33N 50°56' E 001°12'1110.7
2017-Feb-12 09:33N 51°03' E 001°25'1313.2
2017-Feb-12 08:33N 51°11' E 001°41'1212.4
2017-Feb-12 07:33N 51°21' E 001°53'1111.0
2017-Feb-12 06:33N 51°30' E 002°03'10 9.6
2017-Feb-12 05:33N 51°37' E 002°14'8 8.3
2017-Feb-12 04:33N 51°43' E 002°23'51 8.0
2017-Feb-11 22:10N 52°03' E 003°39'610.6
2017-Feb-11 21:33N 52°03' E 003°50'1010.1
2017-Feb-11 20:33N 51°59' E 004°05'3 3.0
2017-Feb-11 19:31N 51°57' E 004°09'0 0.0
2017-Feb-11 18:31N 51°57' E 004°09'0 0.0
2017-Feb-11 17:31N 51°57' E 004°09'0 0.0
2017-Feb-11 16:31N 51°57' E 004°09'0 0.0
2017-Feb-11 15:31N 51°57' E 004°09'0 0.0
2017-Feb-11 14:31N 51°57' E 004°09'0 0.0
2017-Feb-11 13:31N 51°57' E 004°09'0 0.0
2017-Feb-11 12:31N 51°57' E 004°09'0 0.0
2017-Feb-11 11:31N 51°57' E 004°09'0 0.0
2017-Feb-11 10:31N 51°57' E 004°09'0 0.0
2017-Feb-11 09:31N 51°57' E 004°09'  
Track history (hours):
 
Tides and Currents Weather Stations Pressure Air Temp Water Temp Dewpoint Dewpoint Depression Visibility Wind Speed Wind Dir Waves Ship Positions

Wilson Heron

Last reported at 2017-Feb-21 09:21 UTC. Time now 2017-Feb-21 17:31 UTC.
Position N 39°41' W 009°50'.

Length 91 m; draft 6 m.

Type: Cargo ship. MMSI: 249075000.

Date/timePositionNaut miles runAvg speedWind from/ knotsBaromVisibWave heightAir tempDewpointWater temp
2017-Feb-21 09:21N 39°41' W 009°50'7 9.4
2017-Feb-21 08:33N 39°34' W 009°51'9 9.3
2017-Feb-21 07:33N 39°25' W 009°51'10 9.6
2017-Feb-21 06:33N 39°15' W 009°50'9 9.3
2017-Feb-21 05:33N 39°06' W 009°51'9 8.9
2017-Feb-21 04:33N 38°57' W 009°51'9 9.0
2017-Feb-21 03:33N 38°48' W 009°51'9 8.8
2017-Feb-21 02:33N 38°39' W 009°50'9 9.4
2017-Feb-21 01:33N 38°30' W 009°46'9 9.1
2017-Feb-21 00:33N 38°21' W 009°43'9 9.3
2017-Feb-20 23:33N 38°15' W 009°34'9 9.5
2017-Feb-20 22:33N 38°10' W 009°24'10 9.7
2017-Feb-20 21:33N 38°04' W 009°14'10 9.7
2017-Feb-20 20:33N 37°59' W 009°03'10 9.9
2017-Feb-20 19:33N 37°54' W 008°52'2 2.1
2017-Feb-20 18:32N 37°56' W 008°51'0 0.0
2017-Feb-20 17:32N 37°56' W 008°51'0 0.0
2017-Feb-20 16:32N 37°56' W 008°51'0 0.0
2017-Feb-20 15:32N 37°56' W 008°51'0 0.0
2017-Feb-20 14:32N 37°56' W 008°51'0 0.0
2017-Feb-20 13:29N 37°56' W 008°51'0 0.0
2017-Feb-20 12:32N 37°56' W 008°51'0 0.0
2017-Feb-20 11:32N 37°56' W 008°51'0 0.0
2017-Feb-20 10:32N 37°56' W 008°51'0 0.0
2017-Feb-20 09:32N 37°56' W 008°51'0 0.0
2017-Feb-20 08:32N 37°56' W 008°51'0 0.0
2017-Feb-20 07:32N 37°56' W 008°51'0 0.0
2017-Feb-20 06:32N 37°56' W 008°51'0 0.0
2017-Feb-20 05:32N 37°56' W 008°51'0 0.0
2017-Feb-20 04:29N 37°56' W 008°51'0 0.0
2017-Feb-20 03:32N 37°56' W 008°51'0 0.0
2017-Feb-20 02:32N 37°56' W 008°51'0 0.0
2017-Feb-20 01:32N 37°56' W 008°51'0 0.0
2017-Feb-20 00:32N 37°56' W 008°51'0 0.0
2017-Feb-19 23:32N 37°56' W 008°51'0 0.0
2017-Feb-19 22:32N 37°56' W 008°51'0 0.0
2017-Feb-19 21:32N 37°56' W 008°51'0 0.0
2017-Feb-19 20:32N 37°56' W 008°51'0 0.0
2017-Feb-19 19:32N 37°56' W 008°51'0 0.0
2017-Feb-19 18:32N 37°56' W 008°51'1 0.9
2017-Feb-19 17:33N 37°56' W 008°52'1 0.5
2017-Feb-19 16:32N 37°56' W 008°52'0 0.0
2017-Feb-19 15:32N 37°56' W 008°52'0 0.0
2017-Feb-19 14:29N 37°56' W 008°52'0 0.0
2017-Feb-19 13:32N 37°56' W 008°52'0 0.0
2017-Feb-19 12:32N 37°56' W 008°52'1 1.4
2017-Feb-19 11:33N 37°55' W 008°53'4 3.6
2017-Feb-19 10:33N 37°55' W 008°57'3 3.2
2017-Feb-19 09:33N 37°56' W 009°01'1 1.4
2017-Feb-19 08:33N 37°58' W 009°02'2 2.2
2017-Feb-19 07:33N 37°59' W 009°03'6 6.4
2017-Feb-19 06:33N 38°03' W 009°10'1010.1
2017-Feb-19 05:33N 38°09' W 009°20'1110.5
2017-Feb-19 04:33N 38°15' W 009°31'1110.5
2017-Feb-19 03:33N 38°21' W 009°42'1010.5
2017-Feb-19 02:33N 38°28' W 009°53'1010.4
2017-Feb-19 01:33N 38°34' W 010°03'1110.3
2017-Feb-19 00:31N 38°45' W 010°06'1010.6
2017-Feb-18 23:33N 38°55' W 010°06'1110.7
2017-Feb-18 22:32N 39°06' W 010°06'339 8.0
2017-Feb-17 04:16N 43°46' W 005°51'810.7
2017-Feb-17 03:33N 43°45' W 005°40'1110.6
2017-Feb-17 02:33N 43°44' W 005°26'1110.7
2017-Feb-17 01:33N 43°43' W 005°11'14010.8
2017-Feb-16 12:33N 43°22' W 001°59'2 0.1
2017-Feb-15 12:33N 43°22' W 001°56'38 7.2
2017-Feb-15 07:21N 43°55' W 002°21'810.5
2017-Feb-15 06:33N 44°02' W 002°27'1010.3
2017-Feb-15 05:33N 44°12' W 002°33'10 9.9
2017-Feb-15 04:33N 44°20' W 002°40'326 7.4
2017-Feb-13 08:29N 49°45' W 003°34'7 7.6
2017-Feb-13 07:33N 49°48' W 003°24'8 7.7
2017-Feb-13 06:33N 49°51' W 003°14'8 8.3
2017-Feb-13 05:33N 49°56' W 003°03'9 9.0
2017-Feb-13 04:33N 49°59' W 002°50'96 8.7
2017-Feb-12 17:33N 50°26' W 000°26'1111.0
2017-Feb-12 16:31N 50°29' W 000°09'1111.1
2017-Feb-12 15:33N 50°32' E 000°07'1110.9
2017-Feb-12 14:33N 50°35' E 000°24'1010.1
2017-Feb-12 13:33N 50°39' E 000°38'10 9.6
2017-Feb-12 12:33N 50°45' E 000°50'12 8.9
2017-Feb-12 11:09N 50°52' E 001°05'6 9.1
2017-Feb-12 10:33N 50°56' E 001°12'1110.7
2017-Feb-12 09:33N 51°03' E 001°25'1313.2
2017-Feb-12 08:33N 51°11' E 001°41'1212.4
2017-Feb-12 07:33N 51°21' E 001°53'1111.0
2017-Feb-12 06:33N 51°30' E 002°03'10 9.6
2017-Feb-12 05:33N 51°37' E 002°14'8 8.3
2017-Feb-12 04:33N 51°43' E 002°23'51 8.0
2017-Feb-11 22:10N 52°03' E 003°39'610.6
2017-Feb-11 21:33N 52°03' E 003°50'1010.1
2017-Feb-11 20:33N 51°59' E 004°05'3 3.0
2017-Feb-11 19:31N 51°57' E 004°09'0 0.0
2017-Feb-11 18:31N 51°57' E 004°09'0 0.0
2017-Feb-11 17:31N 51°57' E 004°09'0 0.0
2017-Feb-11 16:31N 51°57' E 004°09'0 0.0
2017-Feb-11 15:31N 51°57' E 004°09'0 0.0
2017-Feb-11 14:31N 51°57' E 004°09'0 0.0
2017-Feb-11 13:31N 51°57' E 004°09'0 0.0
2017-Feb-11 12:31N 51°57' E 004°09'0 0.0
2017-Feb-11 11:31N 51°57' E 004°09'0 0.0
2017-Feb-11 10:31N 51°57' E 004°09'0 0.0
2017-Feb-11 09:31N 51°57' E 004°09'  

Dump ship's entire track history